Nf67 Femarnbaelt II — OU3102 — position and weather

sailwx.info

Track history (hours):
 
Tides and Currents Weather Stations Pressure Air Temp Water Temp Dewpoint Dewpoint Depression Visibility Wind Speed Wind Dir Waves Ship Positions

Nf67 Femarnbaelt II

Last reported at 2017-Feb-19 00:25 UTC. Time now 2017-Feb-21 01:20 UTC.
Position N 57°36' E 009°57'.

Length 15 m.

Type: Fishing. MMSI: 219012459.

Date/timePositionNaut miles runAvg speedWind from/ knotsBaromVisibWave heightAir tempDewpointWater temp
2017-Feb-19 00:25N 57°36' E 009°57'0 0.0
2017-Feb-18 23:25N 57°36' E 009°57'0 0.0
2017-Feb-18 00:29N 57°36' E 009°57'0 0.0
2017-Feb-17 23:32N 57°36' E 009°57'0 0.0
2017-Feb-16 00:14N 57°36' E 009°57'22 1.6
2017-Feb-15 10:29N 57°58' E 009°56'2 2.4
2017-Feb-15 09:27N 57°57' E 009°52'13 3.2
2017-Feb-15 05:13N 57°44' E 009°49'5 7.9
2017-Feb-15 04:33N 57°39' E 009°53'4 3.9
2017-Feb-15 03:32N 57°36' E 009°57'0 0.0
2017-Feb-15 02:23N 57°36' E 009°57'0 0.0
2017-Feb-15 00:29N 57°36' E 009°57'0 0.0
2017-Feb-14 23:11N 57°36' E 009°57'0 0.0
2017-Feb-14 22:17N 57°36' E 009°57'0 0.0
2017-Feb-14 21:26N 57°36' E 009°57'0 0.0
2017-Feb-14 20:26N 57°36' E 009°57'1 1.4
2017-Feb-14 19:33N 57°37' E 009°56'9 6.6
2017-Feb-14 18:15N 57°44' E 009°48'10 3.2
2017-Feb-14 15:11N 57°53' E 009°42'3 2.4
2017-Feb-14 14:08N 57°54' E 009°47'2 2.5
2017-Feb-14 13:28N 57°55' E 009°49'2 2.4
2017-Feb-14 12:33N 57°56' E 009°53'2 2.1
2017-Feb-14 11:22N 57°57' E 009°57'2 2.2
2017-Feb-14 10:32N 57°57' E 009°54'3 2.6
2017-Feb-14 09:33N 57°56' E 009°50'3 2.5
2017-Feb-14 08:19N 57°54' E 009°45'2 2.5
2017-Feb-14 07:33N 57°53' E 009°41'12 3.5
2017-Feb-14 04:13N 57°42' E 009°50'8 1.7
2017-Feb-13 23:31N 57°36' E 009°58'3 0.8
2017-Feb-13 19:16N 57°39' E 009°55'6 6.7
2017-Feb-13 18:22N 57°44' E 009°50'11 4.7
2017-Feb-13 16:06N 57°54' E 009°42'2 2.6
2017-Feb-13 15:30N 57°54' E 009°44'3 2.5
2017-Feb-13 14:17N 57°56' E 009°49'21 0.5
2017-Feb-11 22:32N 57°36' E 009°57'0 0.0
2017-Feb-11 21:32N 57°36' E 009°57'0 0.0
2017-Feb-11 00:27N 57°36' E 009°57'0 0.0
2017-Feb-10 23:33N 57°36' E 009°57'  
Track history (hours):
 
Tides and Currents Weather Stations Pressure Air Temp Water Temp Dewpoint Dewpoint Depression Visibility Wind Speed Wind Dir Waves Ship Positions

Nf67 Femarnbaelt II

Last reported at 2017-Feb-19 00:25 UTC. Time now 2017-Feb-21 01:20 UTC.
Position N 57°36' E 009°57'.

Length 15 m.

Type: Fishing. MMSI: 219012459.

Date/timePositionNaut miles runAvg speedWind from/ knotsBaromVisibWave heightAir tempDewpointWater temp
2017-Feb-19 00:25N 57°36' E 009°57'0 0.0
2017-Feb-18 23:25N 57°36' E 009°57'0 0.0
2017-Feb-18 00:29N 57°36' E 009°57'0 0.0
2017-Feb-17 23:32N 57°36' E 009°57'0 0.0
2017-Feb-16 00:14N 57°36' E 009°57'22 1.6
2017-Feb-15 10:29N 57°58' E 009°56'2 2.4
2017-Feb-15 09:27N 57°57' E 009°52'13 3.2
2017-Feb-15 05:13N 57°44' E 009°49'5 7.9
2017-Feb-15 04:33N 57°39' E 009°53'4 3.9
2017-Feb-15 03:32N 57°36' E 009°57'0 0.0
2017-Feb-15 02:23N 57°36' E 009°57'0 0.0
2017-Feb-15 00:29N 57°36' E 009°57'0 0.0
2017-Feb-14 23:11N 57°36' E 009°57'0 0.0
2017-Feb-14 22:17N 57°36' E 009°57'0 0.0
2017-Feb-14 21:26N 57°36' E 009°57'0 0.0
2017-Feb-14 20:26N 57°36' E 009°57'1 1.4
2017-Feb-14 19:33N 57°37' E 009°56'9 6.6
2017-Feb-14 18:15N 57°44' E 009°48'10 3.2
2017-Feb-14 15:11N 57°53' E 009°42'3 2.4
2017-Feb-14 14:08N 57°54' E 009°47'2 2.5
2017-Feb-14 13:28N 57°55' E 009°49'2 2.4
2017-Feb-14 12:33N 57°56' E 009°53'2 2.1
2017-Feb-14 11:22N 57°57' E 009°57'2 2.2
2017-Feb-14 10:32N 57°57' E 009°54'3 2.6
2017-Feb-14 09:33N 57°56' E 009°50'3 2.5
2017-Feb-14 08:19N 57°54' E 009°45'2 2.5
2017-Feb-14 07:33N 57°53' E 009°41'12 3.5
2017-Feb-14 04:13N 57°42' E 009°50'8 1.7
2017-Feb-13 23:31N 57°36' E 009°58'3 0.8
2017-Feb-13 19:16N 57°39' E 009°55'6 6.7
2017-Feb-13 18:22N 57°44' E 009°50'11 4.7
2017-Feb-13 16:06N 57°54' E 009°42'2 2.6
2017-Feb-13 15:30N 57°54' E 009°44'3 2.5
2017-Feb-13 14:17N 57°56' E 009°49'21 0.5
2017-Feb-11 22:32N 57°36' E 009°57'0 0.0
2017-Feb-11 21:32N 57°36' E 009°57'0 0.0
2017-Feb-11 00:27N 57°36' E 009°57'0 0.0
2017-Feb-10 23:33N 57°36' E 009°57'  

Dump ship's entire track history